Time;durP1;ratioP1;P1;durP2;ratioP2;P2;SDS_P1;SDS_P2;PMS_P1;PMS_P2;Temp;Humidity;BMP_temperature;BMP_pressure;BME280_temperature;BME280_humidity;BME280_pressure;Samples;Min_cycle;Max_cycle;Signal;HPM_P1;HPM_P2
2023/05/17 00:02:08;;;;;;;;;;;;;;;13.06;51.40;101353.28;4965505;28;7245;-80
2023/05/17 00:04:34;;;;;;;;;;;;;;;13.02;51.60;101357.38;4954059;28;6982;-78
2023/05/17 00:07:00;;;;;;;;;;;;;;;12.98;52.09;101360.56;4984339;28;6772;-81
2023/05/17 00:09:25;;;;;;;;;;;;;;;12.95;51.87;101359.53;4964612;28;9295;-82
2023/05/17 00:11:51;;;;;;;;;;;;;;;12.94;51.95;101368.03;4971021;28;7218;-79
2023/05/17 00:14:16;;;;;;;;;;;;;;;12.90;52.32;101367.00;4967354;28;6769;-79
2023/05/17 00:16:42;;;;;;;;;;;;;;;12.88;52.87;101356.63;4988235;28;6788;-79
2023/05/17 00:19:08;;;;;;;;;;;;;;;12.85;52.35;101360.72;4985089;28;6945;-80
2023/05/17 00:21:34;;;;;;;;;;;;;;;12.82;52.19;101365.69;4969241;28;6780;-79
2023/05/17 00:24:00;;;;;;;;;;;;;;;12.78;52.41;101364.66;4989024;28;6792;-80
2023/05/17 00:26:25;;;;;;;;;;;;;;;12.75;52.63;101372.22;4981820;28;6786;-79
2023/05/17 00:28:51;;;;;;;;;;;;;;;12.71;53.34;101370.25;4953769;28;6815;-79
2023/05/17 00:31:17;;;;;;;;;;;;;;;12.67;53.20;101368.31;4953358;28;7026;-79
2023/05/17 00:33:42;;;;;;;;;;;;;;;12.62;52.79;101374.09;4962529;28;7055;-80
2023/05/17 00:36:08;;;;;;;;;;;;;;;12.58;52.97;101377.31;4974136;28;6780;-76
2023/05/17 00:38:33;;;;;;;;;;;;;;;12.55;53.14;101381.38;4971138;28;6788;-78
2023/05/17 00:40:59;;;;;;;;;;;;;;;12.51;53.34;101370.03;4969048;28;6904;-80
2023/05/17 00:43:26;;;;;;;;;;;;;;;12.47;53.59;101375.81;4952978;28;8667;-78
2023/05/17 00:45:52;;;;;;;;;;;;;;;12.45;53.52;101372.25;4971135;28;6784;-78
2023/05/17 00:48:24;;;;;;;;;;;;;;;12.43;54.18;101371.28;4968593;28;6803;-77
2023/05/17 00:50:52;;;;;;;;;;;;;;;12.39;53.56;101364.22;4968148;28;6872;-80
2023/05/17 00:53:18;;;;;;;;;;;;;;;12.36;53.78;101363.25;4963710;28;7245;-80
2023/05/17 00:55:44;;;;;;;;;;;;;;;12.33;53.87;101357.91;4967682;28;6796;-76
2023/05/17 00:58:11;;;;;;;;;;;;;;;12.30;53.80;101359.44;4969903;28;6844;-79
2023/05/17 01:00:37;;;;;;;;;;;;;;;12.28;54.59;101361.94;4966057;28;6959;-79
2023/05/17 01:03:03;;;;;;;;;;;;;;;12.24;54.19;101352.25;4972476;28;6787;-79
2023/05/17 01:05:29;;;;;;;;;;;;;;;12.21;54.64;101363.25;4968221;28;6937;-78
2023/05/17 01:07:55;;;;;;;;;;;;;;;12.19;53.92;101356.28;4966323;28;6776;-80
2023/05/17 01:10:41;;;;;;;;;;;;;;;12.14;54.33;101356.00;4969817;28;6764;-78
2023/05/17 01:13:17;;;;;;;;;;;;;;;12.12;54.22;101361.84;4986531;28;6884;-79
2023/05/17 01:15:57;;;;;;;;;;;;;;;12.10;55.07;101363.47;4966257;28;7003;-80
2023/05/17 01:18:51;;;;;;;;;;;;;;;12.05;54.72;101366.63;4970702;28;6884;-79
2023/05/17 01:21:55;;;;;;;;;;;;;;;12.02;55.26;101371.59;4969451;28;6835;-80
2023/05/17 01:24:44;;;;;;;;;;;;;;;12.00;55.22;101369.69;4971751;28;6871;-77
2023/05/17 01:27:14;;;;;;;;;;;;;;;11.96;55.50;101378.91;4969472;28;8303;-80
2023/05/17 01:29:43;;;;;;;;;;;;;;;11.94;55.02;101386.56;4974275;28;6811;-80
2023/05/17 01:32:09;;;;;;;;;;;;;;;11.92;55.42;101376.97;4931572;28;7282;-77
2023/05/17 01:34:35;;;;;;;;;;;;;;;11.90;55.30;101383.72;4962785;28;6776;-74
2023/05/17 01:37:01;;;;;;;;;;;;;;;11.87;55.75;101386.09;4944269;28;6951;-79
2023/05/17 01:39:27;;;;;;;;;;;;;;;11.83;55.53;101381.56;4939890;28;7214;-80
2023/05/17 01:42:38;;;;;;;;;;;;;;;11.79;55.15;101389.13;4958958;28;6788;-80
2023/05/17 01:45:19;;;;;;;;;;;;;;;11.77;55.35;101394.94;4935371;28;7430;-78
2023/05/17 01:48:14;;;;;;;;;;;;;;;11.73;55.89;101401.59;4945185;28;7776;-78
2023/05/17 01:50:42;;;;;;;;;;;;;;;11.69;55.61;101398.75;4942785;28;6800;-79
2023/05/17 01:53:17;;;;;;;;;;;;;;;11.68;55.60;101400.41;4944674;28;8502;-78
2023/05/17 01:55:55;;;;;;;;;;;;;;;11.64;55.76;101404.50;4959643;28;6892;-79
2023/05/17 01:58:24;;;;;;;;;;;;;;;11.61;55.76;101406.00;4958159;28;6804;-79
2023/05/17 02:00:56;;;;;;;;;;;;;;;11.56;56.09;101408.28;4951782;28;6804;-76
2023/05/17 02:03:23;;;;;;;;;;;;;;;11.50;55.87;101403.66;4953859;28;6990;-77
2023/05/17 02:05:49;;;;;;;;;;;;;;;11.46;56.31;101398.25;4928792;28;6848;-79
2023/05/17 02:08:14;;;;;;;;;;;;;;;11.43;56.23;101414.34;4944228;28;6815;-79
2023/05/17 02:10:40;;;;;;;;;;;;;;;11.38;56.20;101414.06;4954761;28;8491;-76
2023/05/17 02:13:06;;;;;;;;;;;;;;;11.33;56.35;101404.31;4944390;28;7095;-76
2023/05/17 02:15:31;;;;;;;;;;;;;;;11.29;56.16;101415.19;4963254;28;7359;-78
2023/05/17 02:17:57;;;;;;;;;;;;;;;11.23;56.34;101414.03;4958420;28;6986;-78
2023/05/17 02:20:23;;;;;;;;;;;;;;;11.18;56.37;101414.53;4943736;28;6792;-78
2023/05/17 02:22:48;;;;;;;;;;;;;;;11.13;55.45;101406.56;4944575;28;6842;-82
2023/05/17 02:25:15;;;;;;;;;;;;;;;11.10;55.96;101406.34;4943585;28;6864;-78
2023/05/17 02:27:40;;;;;;;;;;;;;;;11.07;55.88;101398.47;4944917;28;6943;-79
2023/05/17 02:30:07;;;;;;;;;;;;;;;11.03;56.55;101401.66;4961029;28;6787;-80
2023/05/17 02:32:32;;;;;;;;;;;;;;;11.01;56.66;101404.09;4961389;28;6796;-80
2023/05/17 02:34:59;;;;;;;;;;;;;;;11.01;56.81;101408.34;4964432;28;6764;-79
2023/05/17 02:37:25;;;;;;;;;;;;;;;11.00;56.92;101412.59;4948960;28;7484;-80
2023/05/17 02:39:50;;;;;;;;;;;;;;;10.98;56.71;101417.63;4948355;28;7218;-78
2023/05/17 02:42:16;;;;;;;;;;;;;;;10.96;56.71;101413.19;4963143;28;7744;-76
2023/05/17 02:44:42;;;;;;;;;;;;;;;10.94;56.51;101407.97;4963542;28;6772;-73
2023/05/17 02:47:08;;;;;;;;;;;;;;;10.91;56.57;101420.63;4961807;28;6772;-74
2023/05/17 02:49:33;;;;;;;;;;;;;;;10.87;57.05;101416.06;4945642;28;6768;-73
2023/05/17 02:51:59;;;;;;;;;;;;;;;10.86;56.89;101416.84;4959178;28;6772;-73
2023/05/17 02:54:25;;;;;;;;;;;;;;;10.83;57.27;101414.13;4945272;28;6926;-72
2023/05/17 02:56:51;;;;;;;;;;;;;;;10.81;57.17;101416.56;4946771;28;7194;-73
2023/05/17 02:59:16;;;;;;;;;;;;;;;10.80;57.25;101416.47;4929862;28;6918;-76
2023/05/17 03:01:42;;;;;;;;;;;;;;;10.78;57.22;101420.63;4956022;28;7086;-73
2023/05/17 03:04:08;;;;;;;;;;;;;;;10.75;56.93;101420.44;4973482;28;7803;-72
2023/05/17 03:06:33;;;;;;;;;;;;;;;10.72;57.02;101425.34;4972464;28;7130;-73
2023/05/17 03:08:59;;;;;;;;;;;;;;;10.69;57.02;101421.81;4969857;28;6895;-73
2023/05/17 03:11:25;;;;;;;;;;;;;;;10.68;57.31;101429.41;4983594;28;6960;-72
2023/05/17 03:13:51;;;;;;;;;;;;;;;10.67;57.43;101419.91;4966724;28;6964;-72
2023/05/17 03:16:17;;;;;;;;;;;;;;;10.66;57.40;101426.75;4986051;28;6780;-75
2023/05/17 03:18:43;;;;;;;;;;;;;;;10.63;57.31;101416.31;4971752;28;7035;-73
2023/05/17 03:21:09;;;;;;;;;;;;;;;10.61;57.82;101415.28;4956440;28;6986;-74
2023/05/17 03:23:34;;;;;;;;;;;;;;;10.61;57.84;101428.09;4967085;28;7229;-73
2023/05/17 03:26:00;;;;;;;;;;;;;;;10.61;57.51;101432.38;4966457;28;6792;-73
2023/05/17 03:28:25;;;;;;;;;;;;;;;10.60;57.66;101431.47;4982349;28;7243;-74
2023/05/17 03:30:51;;;;;;;;;;;;;;;10.60;57.36;101435.72;4968926;28;6863;-74
2023/05/17 03:33:18;;;;;;;;;;;;;;;10.60;57.65;101439.16;4959706;28;6808;-76
2023/05/17 03:35:45;;;;;;;;;;;;;;;10.60;57.69;101441.72;4978779;28;7006;-73
2023/05/17 03:38:12;;;;;;;;;;;;;;;10.61;57.36;101442.63;4973817;28;6796;-75
2023/05/17 03:40:40;;;;;;;;;;;;;;;10.60;58.20;101448.53;4953312;28;6844;-74
2023/05/17 03:43:06;;;;;;;;;;;;;;;10.60;57.76;101451.97;4966873;28;6876;-77
2023/05/17 03:45:31;;;;;;;;;;;;;;;10.60;57.74;101448.53;4946887;28;6956;-71
2023/05/17 03:47:57;;;;;;;;;;;;;;;10.61;57.71;101451.19;4956340;28;6968;-72
2023/05/17 03:50:23;;;;;;;;;;;;;;;10.62;58.17;101455.53;4966817;28;8603;-72
2023/05/17 03:52:48;;;;;;;;;;;;;;;10.63;58.36;101457.31;4958815;28;7146;-73
2023/05/17 03:55:14;;;;;;;;;;;;;;;10.64;58.73;101459.09;4962890;28;7023;-74
2023/05/17 03:57:40;;;;;;;;;;;;;;;10.64;58.32;101451.41;4947560;28;6976;-73
2023/05/17 04:00:09;;;;;;;;;;;;;;;10.66;58.67;101451.47;4966049;28;6764;-74
2023/05/17 04:02:35;;;;;;;;;;;;;;;10.66;58.44;101451.47;4955437;28;13084;-72
2023/05/17 04:05:01;;;;;;;;;;;;;;;10.67;58.64;101454.16;4943401;28;7002;-77
2023/05/17 04:07:26;;;;;;;;;;;;;;;10.69;58.96;101459.38;4936557;28;6983;-80
2023/05/17 04:09:54;;;;;;;;;;;;;;;10.70;58.62;101459.47;4955384;28;6772;-75
2023/05/17 04:12:19;;;;;;;;;;;;;;;10.73;58.51;101458.78;4940542;28;6902;-75
2023/05/17 04:14:45;;;;;;;;;;;;;;;10.74;58.78;101463.13;4942204;28;6983;-79
2023/05/17 04:17:11;;;;;;;;;;;;;;;10.79;58.67;101464.31;4961463;28;7451;-80
2023/05/17 04:19:36;;;;;;;;;;;;;;;10.88;59.19;101474.25;4944641;28;7019;-79
2023/05/17 04:22:02;;;;;;;;;;;;;;;10.96;59.17;101478.22;4962517;28;6941;-80
2023/05/17 04:24:27;;;;;;;;;;;;;;;11.07;59.75;101485.69;4944626;28;6804;-78
2023/05/17 04:26:53;;;;;;;;;;;;;;;11.16;59.31;101480.28;4957182;28;8851;-79
2023/05/17 04:29:19;;;;;;;;;;;;;;;11.27;59.62;101489.53;4945278;28;6784;-77
2023/05/17 04:31:47;;;;;;;;;;;;;;;11.34;59.48;101491.66;4941754;28;6951;-81
2023/05/17 04:34:13;;;;;;;;;;;;;;;11.46;59.11;101491.53;4949885;28;6804;-78
2023/05/17 04:36:39;;;;;;;;;;;;;;;11.56;59.56;101487.88;4940296;28;8538;-81
2023/05/17 04:39:04;;;;;;;;;;;;;;;11.64;59.04;101489.25;4976701;28;6784;-80
2023/05/17 04:41:30;;;;;;;;;;;;;;;11.74;59.13;101488.09;4952322;28;7227;-79
2023/05/17 04:43:56;;;;;;;;;;;;;;;11.84;59.37;101491.22;4951032;28;7187;-79
2023/05/17 04:46:22;;;;;;;;;;;;;;;11.95;59.76;101488.53;4947559;28;7366;-78
2023/05/17 04:48:48;;;;;;;;;;;;;;;12.06;59.35;101488.31;4934421;28;7202;-77
2023/05/17 04:51:13;;;;;;;;;;;;;;;12.16;58.94;101487.16;4948973;28;7106;-81
2023/05/17 04:53:39;;;;;;;;;;;;;;;12.25;59.66;101495.41;4945177;28;7014;-81
2023/05/17 04:56:05;;;;;;;;;;;;;;;12.36;59.48;101498.59;4944353;28;6776;-81
2023/05/17 04:58:31;;;;;;;;;;;;;;;12.45;59.03;101496.56;4943361;28;6976;-77
2023/05/17 05:00:57;;;;;;;;;;;;;;;12.56;59.02;101502.34;4935308;28;7295;-82
2023/05/17 05:03:22;;;;;;;;;;;;;;;12.69;59.13;101491.03;4965416;28;6947;-79
2023/05/17 05:05:48;;;;;;;;;;;;;;;12.78;58.39;101501.00;4980201;28;7086;-78
2023/05/17 05:08:14;;;;;;;;;;;;;;;12.89;58.75;101491.28;4950369;28;7217;-81
2023/05/17 05:10:39;;;;;;;;;;;;;;;12.98;58.50;101506.38;4946783;28;6959;-81
2023/05/17 05:13:05;;;;;;;;;;;;;;;13.06;58.72;101507.69;4948758;28;7865;-81
2023/05/17 05:15:31;;;;;;;;;;;;;;;13.15;58.23;101518.50;4963215;28;8067;-79
2023/05/17 05:17:57;;;;;;;;;;;;;;;13.26;58.31;101515.63;4980443;28;7021;-80
2023/05/17 05:20:22;;;;;;;;;;;;;;;13.34;58.43;101519.50;4980655;28;6995;-80
2023/05/17 05:22:48;;;;;;;;;;;;;;;13.44;58.07;101524.38;4966685;28;7219;-80
2023/05/17 05:25:14;;;;;;;;;;;;;;;13.59;58.61;101528.56;4986037;28;6768;-81
2023/05/17 05:27:39;;;;;;;;;;;;;;;13.72;58.99;101527.53;4964434;28;8631;-80
2023/05/17 05:30:06;;;;;;;;;;;;;;;13.82;58.23;101534.09;4967997;28;7003;-80
2023/05/17 05:32:32;;;;;;;;;;;;;;;13.88;58.38;101534.38;4969568;28;6788;-79
2023/05/17 05:34:57;;;;;;;;;;;;;;;13.91;57.54;101542.31;4969769;28;7276;-82
2023/05/17 05:37:23;;;;;;;;;;;;;;;13.92;57.47;101541.50;4947770;28;7123;-81
2023/05/17 05:39:48;;;;;;;;;;;;;;;13.94;57.29;101539.88;4951626;28;7235;-81
2023/05/17 05:42:14;;;;;;;;;;;;;;;13.93;58.10;101543.25;4982643;28;7160;-83
2023/05/17 05:44:40;;;;;;;;;;;;;;;13.95;57.16;101545.91;4983620;28;6787;-81
2023/05/17 05:47:05;;;;;;;;;;;;;;;13.93;57.36;101543.25;4958874;28;6977;-76
2023/05/17 05:49:31;;;;;;;;;;;;;;;13.95;57.74;101549.38;4968233;28;7031;-82
2023/05/17 05:51:57;;;;;;;;;;;;;;;13.99;58.08;101540.97;4966947;28;7265;-81
2023/05/17 05:54:22;;;;;;;;;;;;;;;14.11;58.16;101545.03;4967692;28;6979;-82
2023/05/17 05:56:50;;;;;;;;;;;;;;;14.27;58.49;101551.84;4981400;28;7145;-80
2023/05/17 05:59:15;;;;;;;;;;;;;;;14.46;58.55;101543.34;4969596;28;6973;-78
2023/05/17 06:01:41;;;;;;;;;;;;;;;14.61;58.44;101545.81;4975939;28;6863;-77
2023/05/17 06:04:07;;;;;;;;;;;;;;;14.74;57.88;101547.34;4966046;28;6798;-81
2023/05/17 06:06:32;;;;;;;;;;;;;;;14.86;57.91;101542.78;4973263;28;6776;-80
2023/05/17 06:08:58;;;;;;;;;;;;;;;14.99;58.06;101552.00;4965828;28;6796;-75
2023/05/17 06:11:25;;;;;;;;;;;;;;;15.12;57.75;101544.88;4956082;28;7066;-75
2023/05/17 06:13:50;;;;;;;;;;;;;;;15.30;58.08;101549.09;4960949;28;6816;-75
2023/05/17 06:16:16;;;;;;;;;;;;;;;15.44;58.23;101548.06;4967784;28;7218;-74
2023/05/17 06:18:42;;;;;;;;;;;;;;;15.62;57.19;101552.31;4968252;28;7054;-75
2023/05/17 06:21:07;;;;;;;;;;;;;;;15.74;56.88;101554.53;4968634;28;6867;-74
2023/05/17 06:23:33;;;;;;;;;;;;;;;15.81;56.33;101554.00;4968078;28;6982;-75
2023/05/17 06:25:59;;;;;;;;;;;;;;;15.85;55.93;101560.22;4965429;28;6776;-74
2023/05/17 06:28:25;;;;;;;;;;;;;;;15.84;55.71;101567.09;4967963;28;6864;-75
2023/05/17 06:30:51;;;;;;;;;;;;;;;15.82;55.22;101567.03;4963902;28;7125;-75
2023/05/17 06:33:16;;;;;;;;;;;;;;;15.79;55.32;101566.91;4965441;28;6784;-75
2023/05/17 06:35:42;;;;;;;;;;;;;;;15.77;55.38;101568.50;4979998;28;8313;-75
2023/05/17 06:38:08;;;;;;;;;;;;;;;15.73;54.69;101576.94;4966735;28;6984;-74
2023/05/17 06:40:33;;;;;;;;;;;;;;;15.65;55.15;101573.13;4968171;28;7224;-75
2023/05/17 06:43:01;;;;;;;;;;;;;;;15.57;54.62;101575.34;4968312;28;6950;-75
2023/05/17 06:45:26;;;;;;;;;;;;;;;15.54;55.05;101577.78;4954935;28;7071;-75
2023/05/17 06:47:52;;;;;;;;;;;;;;;15.57;55.25;101580.53;4981365;28;6764;-75
2023/05/17 06:50:18;;;;;;;;;;;;;;;15.69;55.64;101583.66;4967642;28;7023;-75
2023/05/17 06:52:43;;;;;;;;;;;;;;;15.81;55.44;101579.88;4965654;28;6977;-75
2023/05/17 06:55:09;;;;;;;;;;;;;;;15.97;55.37;101578.88;4959757;28;6788;-75
2023/05/17 06:57:35;;;;;;;;;;;;;;;16.11;55.47;101584.66;4974404;28;6903;-74
2023/05/17 07:00:01;;;;;;;;;;;;;;;16.27;55.17;101580.19;4975990;28;7446;-74
2023/05/17 07:02:26;;;;;;;;;;;;;;;16.39;54.47;101580.69;4961990;28;7211;-75
2023/05/17 07:04:52;;;;;;;;;;;;;;;16.47;54.32;101578.47;4946850;28;7253;-75
2023/05/17 07:07:18;;;;;;;;;;;;;;;16.56;54.10;101583.13;4961164;28;7288;-75
2023/05/17 07:09:43;;;;;;;;;;;;;;;16.64;53.86;101574.00;4966649;28;7119;-75
2023/05/17 07:12:09;;;;;;;;;;;;;;;16.77;53.74;101578.84;4964155;28;8489;-75
2023/05/17 07:14:34;;;;;;;;;;;;;;;16.89;53.25;101577.56;4961471;28;6867;-75
2023/05/17 07:17:00;;;;;;;;;;;;;;;17.03;53.21;101580.75;4978840;28;6834;-75
2023/05/17 07:19:26;;;;;;;;;;;;;;;17.20;52.71;101584.91;4987210;28;7295;-75
2023/05/17 07:21:52;;;;;;;;;;;;;;;17.33;51.73;101588.88;4966673;28;7149;-75
2023/05/17 07:24:17;;;;;;;;;;;;;;;17.37;50.73;101591.56;4988451;28;6856;-75
2023/05/17 07:26:44;;;;;;;;;;;;;;;17.37;50.61;101591.56;4985384;28;6851;-75
2023/05/17 07:29:11;;;;;;;;;;;;;;;17.38;49.80;101591.63;4966193;28;6789;-76
2023/05/17 07:31:37;;;;;;;;;;;;;;;17.38;49.59;101593.34;4971634;28;6879;-75
2023/05/17 07:34:04;;;;;;;;;;;;;;;17.45;49.71;101590.16;4970139;28;6950;-75
2023/05/17 07:36:30;;;;;;;;;;;;;;;17.50;49.35;101601.59;4988441;28;7128;-75
2023/05/17 07:38:57;;;;;;;;;;;;;;;17.56;49.08;101598.38;4945006;28;7178;-74
2023/05/17 07:41:22;;;;;;;;;;;;;;;17.70;49.29;101604.06;4958141;28;7012;-75
2023/05/17 07:43:49;;;;;;;;;;;;;;;17.86;49.15;101602.94;4977970;28;6836;-75
2023/05/17 07:46:17;;;;;;;;;;;;;;;17.95;48.40;101603.28;4963052;28;6868;-75
2023/05/17 07:48:42;;;;;;;;;;;;;;;17.99;48.17;101612.06;4965430;28;7350;-75
2023/05/17 07:51:08;;;;;;;;;;;;;;;18.01;47.58;101600.91;4983435;28;7849;-75
2023/05/17 07:53:33;;;;;;;;;;;;;;;18.06;47.00;101615.78;4962988;28;7002;-75
2023/05/17 07:55:59;;;;;;;;;;;;;;;18.13;46.96;101610.88;4962952;28;6839;-74
2023/05/17 07:58:25;;;;;;;;;;;;;;;18.25;46.93;101617.31;4967911;28;6824;-75
2023/05/17 08:00:50;;;;;;;;;;;;;;;18.37;47.14;101614.28;4967060;28;7957;-75
2023/05/17 08:03:16;;;;;;;;;;;;;;;18.49;46.67;101617.31;4980828;28;7208;-75
2023/05/17 08:05:42;;;;;;;;;;;;;;;18.56;45.94;101621.88;4982934;28;6795;-75
2023/05/17 08:08:07;;;;;;;;;;;;;;;18.58;45.46;101619.34;4962849;28;7089;-74
2023/05/17 08:10:35;;;;;;;;;;;;;;;18.58;45.24;101617.63;4946168;28;7159;-72
2023/05/17 08:13:00;;;;;;;;;;;;;;;18.55;44.89;101616.66;4967213;28;6868;-77
2023/05/17 08:15:26;;;;;;;;;;;;;;;18.49;44.83;101617.31;4965551;28;6784;-75
2023/05/17 08:17:52;;;;;;;;;;;;;;;18.56;45.08;101618.44;4982020;28;6958;-73
2023/05/17 08:20:17;;;;;;;;;;;;;;;18.69;45.34;101615.41;4965467;28;6768;-74
2023/05/17 08:22:43;;;;;;;;;;;;;;;18.82;45.08;101608.00;4976490;28;7263;-74
2023/05/17 08:25:09;;;;;;;;;;;;;;;18.94;44.45;101616.22;4978640;28;7040;-76
2023/05/17 08:27:34;;;;;;;;;;;;;;;19.06;44.30;101614.91;4967860;28;6800;-75
2023/05/17 08:30:00;;;;;;;;;;;;;;;19.22;44.28;101611.97;4939491;28;6968;-77
2023/05/17 08:32:26;;;;;;;;;;;;;;;19.51;43.71;101609.38;4964830;28;7354;-73
2023/05/17 08:34:51;;;;;;;;;;;;;;;19.79;42.46;101612.78;4968513;28;6816;-77
2023/05/17 08:37:17;;;;;;;;;;;;;;;19.93;42.47;101604.50;4977875;28;6772;-73
2023/05/17 08:39:43;;;;;;;;;;;;;;;20.09;42.03;101601.53;4968848;28;7118;-73
2023/05/17 08:42:09;;;;;;;;;;;;;;;20.14;41.13;101599.06;4956217;28;7230;-73
2023/05/17 08:44:35;;;;;;;;;;;;;;;20.03;40.23;101606.56;4964149;28;6784;-74
2023/05/17 08:47:03;;;;;;;;;;;;;;;19.72;40.25;101613.47;4960408;28;6808;-73
2023/05/17 08:49:33;;;;;;;;;;;;;;;19.38;39.72;101608.13;4962759;28;6841;-73
2023/05/17 08:52:02;;;;;;;;;;;;;;;19.07;40.18;101607.13;4960612;28;6832;-74
2023/05/17 08:54:27;;;;;;;;;;;;;;;18.84;39.93;101614.16;4968627;28;6839;-73
2023/05/17 08:56:59;;;;;;;;;;;;;;;18.64;40.34;101616.09;4968024;28;7056;-72
2023/05/17 08:59:32;;;;;;;;;;;;;;;18.53;40.80;101620.88;4966045;28;7210;-73
2023/05/17 09:01:58;;;;;;;;;;;;;;;18.70;40.17;101622.34;4945917;28;6993;-77
2023/05/17 09:04:26;;;;;;;;;;;;;;;18.74;39.92;101616.47;4960467;28;7299;-75
2023/05/17 09:06:51;;;;;;;;;;;;;;;18.70;40.16;101618.91;4945689;28;7274;-75
2023/05/17 09:09:20;;;;;;;;;;;;;;;18.64;39.78;101621.28;4967346;28;6776;-73
2023/05/17 09:11:46;;;;;;;;;;;;;;;18.58;39.54;101629.72;4984268;28;6942;-72
2023/05/17 09:14:16;;;;;;;;;;;;;;;18.52;39.50;101637.31;4984571;28;6772;-72
2023/05/17 09:16:42;;;;;;;;;;;;;;;18.42;39.40;101631.78;4947897;28;6982;-72
2023/05/17 09:19:15;;;;;;;;;;;;;;;18.40;39.44;101633.44;4968030;28;6939;-71
2023/05/17 09:21:48;;;;;;;;;;;;;;;18.68;40.45;101623.13;4958072;28;7059;-75
2023/05/17 09:24:19;;;;;;;;;;;;;;;19.39;40.15;101615.09;4945966;28;7886;-74
2023/05/17 09:26:44;;;;;;;;;;;;;;;19.89;39.00;101613.94;4981065;28;6973;-72
2023/05/17 09:29:13;;;;;;;;;;;;;;;20.29;38.83;101614.22;4947832;28;7214;-73
2023/05/17 09:31:40;;;;;;;;;;;;;;;20.49;37.91;101614.72;4963433;28;6808;-72
2023/05/17 09:34:07;;;;;;;;;;;;;;;20.43;37.22;101614.59;4971594;28;7227;-72
2023/05/17 09:36:36;;;;;;;;;;;;;;;20.57;37.42;101616.66;4964526;28;6868;-75
2023/05/17 09:39:06;;;;;;;;;;;;;;;20.89;37.24;101601.88;4971044;28;7275;-73
2023/05/17 09:41:44;;;;;;;;;;;;;;;21.39;37.32;101603.03;4964618;28;6864;-71
2023/05/17 09:44:11;;;;;;;;;;;;;;;22.09;36.47;101612.34;4959798;28;7233;-72
2023/05/17 09:46:44;;;;;;;;;;;;;;;22.39;35.40;101602.41;4967130;28;9833;-75
2023/05/17 09:49:11;;;;;;;;;;;;;;;22.28;35.13;101607.47;4946679;28;6985;-72
2023/05/17 09:51:41;;;;;;;;;;;;;;;22.00;34.81;101614.75;4977552;28;6808;-74
2023/05/17 09:54:12;;;;;;;;;;;;;;;21.69;35.21;101608.91;4963874;28;7091;-72
2023/05/17 09:56:38;;;;;;;;;;;;;;;21.37;35.05;101608.19;4949819;28;7379;-71
2023/05/17 09:59:14;;;;;;;;;;;;;;;21.20;35.58;101607.81;4969630;28;6788;-75
2023/05/17 10:01:43;;;;;;;;;;;;;;;20.99;35.39;101608.19;4978292;28;6804;-77
2023/05/17 10:04:10;;;;;;;;;;;;;;;20.74;35.34;101617.09;4965568;28;7038;-73
2023/05/17 10:06:41;;;;;;;;;;;;;;;20.44;35.23;101613.75;4977553;28;6972;-71
2023/05/17 10:09:12;;;;;;;;;;;;;;;20.22;35.84;101612.28;4946474;28;6979;-72
2023/05/17 10:11:40;;;;;;;;;;;;;;;20.19;35.99;101612.22;4966837;28;6792;-74
2023/05/17 10:14:26;;;;;;;;;;;;;;;20.42;36.04;101606.72;4969708;28;6800;-74
2023/05/17 10:16:53;;;;;;;;;;;;;;;21.08;35.87;101599.72;4964570;28;6804;-74
2023/05/17 10:19:23;;;;;;;;;;;;;;;21.91;34.94;101602.38;4965075;28;7008;-74
2023/05/17 10:21:53;;;;;;;;;;;;;;;22.69;34.10;101596.00;4977576;28;7142;-74
2023/05/17 10:24:23;;;;;;;;;;;;;;;23.37;33.25;101594.47;4968032;28;6872;-74
2023/05/17 10:26:49;;;;;;;;;;;;;;;23.96;32.32;101592.59;4977468;28;6998;-74
2023/05/17 10:29:16;;;;;;;;;;;;;;;24.48;31.10;101586.13;4964384;28;6867;-74
2023/05/17 10:31:42;;;;;;;;;;;;;;;24.89;30.62;101584.75;4978903;28;11519;-73
2023/05/17 10:34:10;;;;;;;;;;;;;;;25.29;30.54;101578.88;4962341;28;7273;-74
2023/05/17 10:36:36;;;;;;;;;;;;;;;25.67;29.91;101568.56;4963274;28;7387;-74
2023/05/17 10:39:06;;;;;;;;;;;;;;;26.09;29.09;101566.94;4956452;28;7010;-74
2023/05/17 10:41:35;;;;;;;;;;;;;;;26.03;29.06;101569.56;4961717;28;6858;-74
2023/05/17 10:44:06;;;;;;;;;;;;;;;25.42;29.33;101573.69;4972283;28;8411;-74
2023/05/17 10:46:33;;;;;;;;;;;;;;;24.84;29.18;101567.25;4978148;28;7323;-74
2023/05/17 10:49:00;;;;;;;;;;;;;;;24.75;29.21;101562.75;4960521;28;6859;-74
2023/05/17 10:51:32;;;;;;;;;;;;;;;24.52;29.29;101563.47;4945203;28;8353;-74
2023/05/17 10:54:10;;;;;;;;;;;;;;;23.94;29.03;101568.09;4964051;28;7043;-74
2023/05/17 10:56:46;;;;;;;;;;;;;;;23.84;29.26;101569.75;4970113;28;6951;-74
2023/05/17 10:59:20;;;;;;;;;;;;;;;24.17;29.30;101570.13;4964834;28;7161;-74
2023/05/17 11:02:08;;;;;;;;;;;;;;;24.70;29.27;101554.88;4985194;28;8598;-74
2023/05/17 11:04:36;;;;;;;;;;;;;;;25.19;28.42;101558.69;4965856;28;6980;-74
2023/05/17 11:07:17;;;;;;;;;;;;;;;25.60;27.75;101547.56;4970464;28;6816;-74
2023/05/17 11:10:07;;;;;;;;;;;;;;;25.86;27.49;101557.25;4968151;28;6804;-74
2023/05/17 11:12:42;;;;;;;;;;;;;;;26.28;27.54;101538.13;4968304;28;7077;-74
2023/05/17 11:15:16;;;;;;;;;;;;;;;26.70;27.04;101546.84;4969736;28;6967;-74
2023/05/17 11:17:42;;;;;;;;;;;;;;;27.08;26.39;101544.19;4970275;28;6792;-74
2023/05/17 11:20:13;;;;;;;;;;;;;;;27.01;25.46;101541.56;4969689;28;6763;-74
2023/05/17 11:23:00;;;;;;;;;;;;;;;26.92;25.77;101540.72;4967974;28;7203;-74
2023/05/17 11:25:37;;;;;;;;;;;;;;;26.25;25.84;101549.47;4965665;28;7020;-74
2023/05/17 11:28:21;;;;;;;;;;;;;;;25.18;26.25;101556.94;4975020;28;7156;-74
2023/05/17 11:30:55;;;;;;;;;;;;;;;24.36;27.50;101549.38;4970476;28;6796;-74
2023/05/17 11:33:44;;;;;;;;;;;;;;;24.57;28.31;101550.41;4967328;28;6824;-74
2023/05/17 11:36:28;;;;;;;;;;;;;;;25.09;28.21;101553.41;4987478;28;6777;-74
2023/05/17 11:39:12;;;;;;;;;;;;;;;25.60;27.46;101549.31;4966259;28;7084;-74
2023/05/17 11:41:47;;;;;;;;;;;;;;;25.62;27.53;101558.94;4947402;28;7140;-74
2023/05/17 11:44:13;;;;;;;;;;;;;;;25.21;27.53;101554.38;4948112;28;7315;-74
2023/05/17 11:46:39;;;;;;;;;;;;;;;24.55;27.48;101556.50;4964313;28;7277;-74
2023/05/17 11:49:09;;;;;;;;;;;;;;;23.81;28.06;101555.75;4960157;28;7367;-74
2023/05/17 11:51:34;;;;;;;;;;;;;;;23.23;28.69;101556.75;4960059;28;7028;-74
2023/05/17 11:54:03;;;;;;;;;;;;;;;22.82;29.17;101556.16;4974838;28;7195;-73
2023/05/17 11:56:35;;;;;;;;;;;;;;;22.56;29.73;101563.59;4958411;28;7705;-74
2023/05/17 11:59:02;;;;;;;;;;;;;;;22.78;29.55;101554.34;4957525;28;6808;-74
2023/05/17 12:01:42;;;;;;;;;;;;;;;23.39;29.38;101547.41;4951508;28;6962;-74
2023/05/17 12:04:08;;;;;;;;;;;;;;;24.10;29.59;101545.63;4969904;28;6804;-74
2023/05/17 12:06:34;;;;;;;;;;;;;;;25.15;29.11;101541.22;4964527;28;7039;-73
2023/05/17 12:09:01;;;;;;;;;;;;;;;25.84;27.85;101540.63;4966099;28;7408;-73
2023/05/17 12:11:27;;;;;;;;;;;;;;;25.78;26.95;101543.22;4963986;28;7320;-74
2023/05/17 12:13:53;;;;;;;;;;;;;;;25.53;26.62;101548.41;4948865;28;6982;-73
2023/05/17 12:16:21;;;;;;;;;;;;;;;24.95;26.66;101545.44;4949083;28;6987;-73
2023/05/17 12:18:50;;;;;;;;;;;;;;;24.27;26.56;101550.13;4968147;28;6995;-75
2023/05/17 12:21:17;;;;;;;;;;;;;;;23.70;27.12;101548.66;4966132;28;6804;-75
2023/05/17 12:23:45;;;;;;;;;;;;;;;23.63;27.71;101543.34;4970044;28;6788;-74
2023/05/17 12:26:14;;;;;;;;;;;;;;;23.68;27.81;101539.91;4967178;28;7343;-74
2023/05/17 12:28:43;;;;;;;;;;;;;;;23.84;28.38;101540.06;4963976;28;7194;-73
2023/05/17 12:31:13;;;;;;;;;;;;;;;24.27;28.00;101529.19;4984125;28;6792;-73
2023/05/17 12:33:42;;;;;;;;;;;;;;;24.88;28.15;101524.44;4964076;28;7915;-74
2023/05/17 12:36:11;;;;;;;;;;;;;;;25.21;27.01;101528.13;4987473;28;6804;-74
2023/05/17 12:38:40;;;;;;;;;;;;;;;25.05;26.96;101530.66;4965896;28;7422;-74
2023/05/17 12:41:10;;;;;;;;;;;;;;;24.60;27.02;101530.34;4970041;28;6864;-74
2023/05/17 12:43:38;;;;;;;;;;;;;;;24.27;27.27;101529.19;4967296;28;7214;-74
2023/05/17 12:46:18;;;;;;;;;;;;;;;24.17;27.32;101533.47;4970067;28;7242;-74
2023/05/17 12:48:45;;;;;;;;;;;;;;;23.84;27.01;101533.13;4983261;28;7193;-73
2023/05/17 12:51:16;;;;;;;;;;;;;;;23.51;28.22;101533.59;4966029;28;6804;-73
2023/05/17 12:53:47;;;;;;;;;;;;;;;23.67;28.19;101530.31;4963855;28;6796;-73